Akhisar Airport

LTBT · 马尼萨省, 土耳其

METAR的历史 LTBT · Akhisar Airport

下面你可以看到过去几天的METARs。 选择年份以浏览从2007年开始的旧METAR。

2024年4月16日

时间 代码 天气 温度 能见度 天花板 METAR/SPECI
20:50
V
20 °C 10 km+ - 250° 250° 10 kt METAR LTBT 161750Z 25010KT CAVOK 20/07 Q1009 RMK RWY13 VRB07KT
19:50
V
21 °C 10 km+ - 140° 140° 4 kt METAR LTBT 161650Z 14004KT 110V170 CAVOK 21/07 Q1010 RMK RWY13 VRB07KT
18:50
V
24 °C 10 km+ - 230° 230° 13 kt METAR LTBT 161550Z 23013KT CAVOK 24/04 Q1011 RMK RWY13 VRB07KT
17:50
V
25 °C 10 km+ - 230° 230° 16 kt METAR LTBT 161450Z 23016KT CAVOK 25/03 Q1010 RMK RWY13 22014KT 200V270
16:50
V
28 °C 10 km+ - 240° 240° 14 kt METAR LTBT 161350Z 24014KT CAVOK 28/07 Q1010 RMK RWY13 21014KT 190V250
15:50
V
29 °C 10 km+ - 220° 220° 13 kt METAR LTBT 161250Z 22013KT 180V240 CAVOK 29/03 Q1010 RMK RWY13 21013KT 190V330
14:50
V
30 °C 10 km+ - 250° 250° 12 kt METAR LTBT 161150Z 25012KT 210V270 CAVOK 30/03 Q1010 RMK RWY13 22009KT 180V280
13:50
V
29 °C 10 km+ - Var Var 3 kt METAR LTBT 161050Z VRB03KT CAVOK 29/09 Q1011 RMK RWY13 VRB03KT
12:50
V
29 °C 10 km+ - 130° 130° 3 kt METAR LTBT 160950Z 13003KT CAVOK 29/07 Q1012 RMK RWY13 VRB07KT
11:50
V
27 °C 10 km+ - Var Var 4 kt METAR LTBT 160850Z VRB04KT CAVOK 27/08 Q1013 RMK RWY13 03004KT
10:50
V
24 °C 10 km+ - Var Var 2 kt METAR LTBT 160750Z VRB02KT CAVOK 24/11 Q1013 RMK RWY13 VRB01KT
09:50
V
20 °C 10 km+ - Var Var 2 kt METAR LTBT 160650Z VRB02KT CAVOK 20/10 Q1014 RMK RWY13 02001KT
08:50
V
15 °C 10 km+ - Var Var 2 kt METAR LTBT 160550Z VRB02KT CAVOK 15/09 Q1014 RMK RWY13 00000KT
07:50
V
11 °C 10 km+ - Var Var 1 kt METAR LTBT 160450Z VRB01KT CAVOK 11/08 Q1014 RMK RWY13 00000KT
06:50
V
9 °C 10 km+ - Var Var 1 kt METAR LTBT 160350Z VRB01KT CAVOK 09/06 Q1014 RMK RWY13 03001KT

2024年4月15日

时间 代码 天气 温度 能见度 天花板 METAR/SPECI
20:50
V
19 °C 10 km+ - 100° 100° 3 kt METAR LTBT 151750Z 10003KT 070V130 CAVOK 19/08 Q1013 RMK RWY13 03003KT
19:50
V
25 °C 10 km+ - 270° 270° 2 kt METAR LTBT 151650Z 27002KT CAVOK 25/07 Q1014 RMK RWY13 VRB02KT
18:50
V
29 °C 10 km+ - 280° 280° 2 kt METAR LTBT 151550Z 28002KT CAVOK 29/12 Q1014 RMK RWY13 18004KT
17:50
V
30 °C 10 km+ - Var Var 2 kt METAR LTBT 151450Z VRB02KT CAVOK 30/07 Q1014 RMK RWY13 01003KT
16:50
V
29 °C 10 km+ - 220° 220° 3 kt METAR LTBT 151350Z 22003KT 150V270 CAVOK 29/08 Q1015 RMK RWY13 02004KT
15:50
V
29 °C 10 km+ - 180° 180° 5 kt METAR LTBT 151250Z 18005KT 150V220 CAVOK 29/09 Q1016 RMK RWY13 36004KT 320V030
14:50
V
28 °C 10 km+ - Var Var 3 kt METAR LTBT 151150Z VRB03KT CAVOK 28/07 Q1017 RMK RWY13 03002KT
13:50
V
26 °C 10 km+ - 220° 220° 4 kt METAR LTBT 151050Z 22004KT 170V270 CAVOK 26/07 Q1018 RMK RWY13 VRB03KT
12:50
V
25 °C 10 km+ - 300° 300° 3 kt METAR LTBT 150950Z 30003KT 210V020 CAVOK 25/07 Q1019 RMK RWY13 VRB04KT
11:50
V
24 °C 10 km+ - Var Var 2 kt METAR LTBT 150850Z VRB02KT CAVOK 24/08 Q1019 RMK RWY13 VRB02KT
10:50
V
22 °C 10 km+ - Var Var 2 kt METAR LTBT 150750Z VRB02KT CAVOK 22/09 Q1020 RMK RWY13 03001KT
09:50
V
18 °C 10 km+ - 010° 010° 3 kt METAR LTBT 150650Z 01003KT 290V080 CAVOK 18/08 Q1020 RMK RWY13 02002KT
08:50
V
15 °C 10 km+ - 310° 310° 4 kt METAR LTBT 150550Z 31004KT 250V030 CAVOK 15/08 Q1020 RMK RWY13 VRB02KT
07:50
V
10 °C 10 km+ - Var Var 2 kt METAR LTBT 150450Z VRB02KT CAVOK 10/06 Q1020 RMK RWY13 02001KT
06:50
V
8 °C 10 km+ - 310° 310° 2 kt METAR LTBT 150350Z 31002KT CAVOK 08/05 Q1020 RMK RWY13 00000KT
报告变更